sensor_id;sensor_type;location;lat;lon;timestamp;P1;durP1;ratioP1;P2;durP2;ratioP2
44564;SDS011;30275;51.822;-0.326;2023-05-01T00:00:00;23.73;;;16.33;;
44564;SDS011;30275;51.822;-0.326;2023-05-01T00:02:28;21.45;;;14.95;;
44564;SDS011;30275;51.822;-0.326;2023-05-01T00:04:54;21.02;;;14.88;;
44564;SDS011;30275;51.822;-0.326;2023-05-01T00:07:20;21.02;;;13.95;;
44564;SDS011;30275;51.822;-0.326;2023-05-01T00:09:46;21.25;;;14.88;;
44564;SDS011;30275;51.822;-0.326;2023-05-01T00:12:12;20.13;;;14.02;;
44564;SDS011;30275;51.822;-0.326;2023-05-01T00:14:37;20.88;;;14.65;;
44564;SDS011;30275;51.822;-0.326;2023-05-01T00:17:03;21.00;;;14.95;;
44564;SDS011;30275;51.822;-0.326;2023-05-01T00:19:30;20.13;;;15.52;;
44564;SDS011;30275;51.822;-0.326;2023-05-01T00:21:56;24.85;;;15.10;;
44564;SDS011;30275;51.822;-0.326;2023-05-01T00:24:21;21.90;;;14.65;;
44564;SDS011;30275;51.822;-0.326;2023-05-01T00:26:47;19.70;;;14.15;;
44564;SDS011;30275;51.822;-0.326;2023-05-01T00:29:12;22.40;;;15.07;;
44564;SDS011;30275;51.822;-0.326;2023-05-01T00:31:38;22.27;;;15.02;;
44564;SDS011;30275;51.822;-0.326;2023-05-01T00:34:06;22.50;;;15.88;;
44564;SDS011;30275;51.822;-0.326;2023-05-01T00:36:31;20.70;;;14.40;;
44564;SDS011;30275;51.822;-0.326;2023-05-01T00:38:57;20.73;;;14.55;;
44564;SDS011;30275;51.822;-0.326;2023-05-01T00:41:23;25.33;;;16.77;;
44564;SDS011;30275;51.822;-0.326;2023-05-01T00:43:48;23.02;;;14.65;;
44564;SDS011;30275;51.822;-0.326;2023-05-01T00:46:14;22.08;;;15.18;;
44564;SDS011;30275;51.822;-0.326;2023-05-01T00:48:39;23.23;;;14.95;;
44564;SDS011;30275;51.822;-0.326;2023-05-01T00:51:06;23.10;;;16.13;;
44564;SDS011;30275;51.822;-0.326;2023-05-01T00:53:32;24.50;;;15.65;;
44564;SDS011;30275;51.822;-0.326;2023-05-01T00:55:58;22.63;;;16.10;;
44564;SDS011;30275;51.822;-0.326;2023-05-01T00:58:24;24.08;;;15.70;;
44564;SDS011;30275;51.822;-0.326;2023-05-01T01:00:50;24.83;;;15.20;;
44564;SDS011;30275;51.822;-0.326;2023-05-01T01:03:17;25.20;;;15.30;;
44564;SDS011;30275;51.822;-0.326;2023-05-01T01:05:54;23.63;;;16.73;;
44564;SDS011;30275;51.822;-0.326;2023-05-01T01:08:35;22.70;;;16.08;;
44564;SDS011;30275;51.822;-0.326;2023-05-01T01:13:55;23.20;;;16.05;;
44564;SDS011;30275;51.822;-0.326;2023-05-01T01:22:07;23.58;;;16.15;;
44564;SDS011;30275;51.822;-0.326;2023-05-01T01:30:14;23.55;;;15.75;;
44564;SDS011;30275;51.822;-0.326;2023-05-01T01:35:33;22.65;;;16.25;;
44564;SDS011;30275;51.822;-0.326;2023-05-01T01:38:07;29.17;;;17.55;;
44564;SDS011;30275;51.822;-0.326;2023-05-01T01:40:45;24.55;;;16.63;;
44564;SDS011;30275;51.822;-0.326;2023-05-01T01:43:25;26.75;;;16.75;;
44564;SDS011;30275;51.822;-0.326;2023-05-01T01:45:59;26.13;;;16.17;;
44564;SDS011;30275;51.822;-0.326;2023-05-01T01:48:30;29.17;;;16.83;;
44564;SDS011;30275;51.822;-0.326;2023-05-01T01:50:58;24.70;;;15.70;;
44564;SDS011;30275;51.822;-0.326;2023-05-01T01:53:25;24.38;;;16.15;;
44564;SDS011;30275;51.822;-0.326;2023-05-01T01:55:53;25.80;;;16.98;;
44564;SDS011;30275;51.822;-0.326;2023-05-01T01:58:22;26.73;;;16.65;;
44564;SDS011;30275;51.822;-0.326;2023-05-01T02:00:50;25.13;;;16.45;;
44564;SDS011;30275;51.822;-0.326;2023-05-01T02:03:17;22.70;;;15.48;;
44564;SDS011;30275;51.822;-0.326;2023-05-01T02:05:44;24.02;;;15.30;;
44564;SDS011;30275;51.822;-0.326;2023-05-01T02:08:12;25.95;;;14.75;;
44564;SDS011;30275;51.822;-0.326;2023-05-01T02:10:39;25.52;;;17.10;;
44564;SDS011;30275;51.822;-0.326;2023-05-01T02:13:07;25.63;;;17.13;;
44564;SDS011;30275;51.822;-0.326;2023-05-01T02:15:33;25.35;;;16.38;;
44564;SDS011;30275;51.822;-0.326;2023-05-01T02:18:00;25.60;;;16.83;;
44564;SDS011;30275;51.822;-0.326;2023-05-01T02:20:27;21.30;;;15.52;;
44564;SDS011;30275;51.822;-0.326;2023-05-01T02:22:54;26.15;;;16.92;;
44564;SDS011;30275;51.822;-0.326;2023-05-01T02:25:21;22.95;;;14.85;;
44564;SDS011;30275;51.822;-0.326;2023-05-01T02:27:49;24.27;;;16.27;;
44564;SDS011;30275;51.822;-0.326;2023-05-01T02:30:20;23.88;;;15.93;;
44564;SDS011;30275;51.822;-0.326;2023-05-01T02:32:46;20.77;;;14.82;;
44564;SDS011;30275;51.822;-0.326;2023-05-01T02:35:11;23.85;;;15.07;;
44564;SDS011;30275;51.822;-0.326;2023-05-01T02:37:37;21.25;;;14.93;;
44564;SDS011;30275;51.822;-0.326;2023-05-01T02:40:03;20.98;;;14.50;;
44564;SDS011;30275;51.822;-0.326;2023-05-01T02:42:31;20.48;;;13.75;;
44564;SDS011;30275;51.822;-0.326;2023-05-01T02:45:00;19.48;;;12.88;;
44564;SDS011;30275;51.822;-0.326;2023-05-01T02:47:29;19.65;;;12.90;;
44564;SDS011;30275;51.822;-0.326;2023-05-01T02:49:57;17.73;;;12.52;;
44564;SDS011;30275;51.822;-0.326;2023-05-01T02:52:24;17.83;;;11.73;;
44564;SDS011;30275;51.822;-0.326;2023-05-01T02:54:49;18.08;;;12.07;;
44564;SDS011;30275;51.822;-0.326;2023-05-01T02:57:16;18.85;;;13.07;;
44564;SDS011;30275;51.822;-0.326;2023-05-01T02:59:42;21.40;;;13.20;;
44564;SDS011;30275;51.822;-0.326;2023-05-01T03:02:07;20.70;;;12.88;;
44564;SDS011;30275;51.822;-0.326;2023-05-01T03:04:33;23.15;;;13.85;;
44564;SDS011;30275;51.822;-0.326;2023-05-01T03:06:58;22.10;;;12.32;;
44564;SDS011;30275;51.822;-0.326;2023-05-01T03:09:24;18.75;;;11.48;;
44564;SDS011;30275;51.822;-0.326;2023-05-01T03:11:50;20.45;;;12.07;;
44564;SDS011;30275;51.822;-0.326;2023-05-01T03:14:15;19.50;;;11.43;;
44564;SDS011;30275;51.822;-0.326;2023-05-01T03:16:41;19.92;;;11.82;;
44564;SDS011;30275;51.822;-0.326;2023-05-01T03:19:07;16.17;;;10.20;;
44564;SDS011;30275;51.822;-0.326;2023-05-01T03:21:33;17.40;;;9.48;;
44564;SDS011;30275;51.822;-0.326;2023-05-01T03:23:58;16.33;;;9.00;;
44564;SDS011;30275;51.822;-0.326;2023-05-01T03:26:24;18.23;;;9.60;;
44564;SDS011;30275;51.822;-0.326;2023-05-01T03:28:50;19.13;;;9.55;;
44564;SDS011;30275;51.822;-0.326;2023-05-01T03:31:16;14.18;;;9.05;;
44564;SDS011;30275;51.822;-0.326;2023-05-01T03:33:41;14.07;;;8.05;;
44564;SDS011;30275;51.822;-0.326;2023-05-01T03:36:07;19.92;;;9.13;;
44564;SDS011;30275;51.822;-0.326;2023-05-01T03:38:35;14.45;;;7.63;;
44564;SDS011;30275;51.822;-0.326;2023-05-01T03:41:01;13.80;;;7.28;;
44564;SDS011;30275;51.822;-0.326;2023-05-01T03:43:29;11.68;;;7.28;;
44564;SDS011;30275;51.822;-0.326;2023-05-01T03:45:55;17.20;;;7.80;;
44564;SDS011;30275;51.822;-0.326;2023-05-01T03:48:21;12.43;;;6.60;;
44564;SDS011;30275;51.822;-0.326;2023-05-01T03:50:47;17.10;;;8.90;;
44564;SDS011;30275;51.822;-0.326;2023-05-01T03:53:13;16.67;;;7.47;;
44564;SDS011;30275;51.822;-0.326;2023-05-01T03:55:39;14.65;;;7.70;;
44564;SDS011;30275;51.822;-0.326;2023-05-01T03:58:05;15.25;;;8.20;;
44564;SDS011;30275;51.822;-0.326;2023-05-01T04:00:31;21.52;;;8.82;;
44564;SDS011;30275;51.822;-0.326;2023-05-01T04:02:57;13.05;;;8.43;;
44564;SDS011;30275;51.822;-0.326;2023-05-01T04:05:22;16.88;;;7.88;;
44564;SDS011;30275;51.822;-0.326;2023-05-01T04:07:48;14.60;;;8.40;;
44564;SDS011;30275;51.822;-0.326;2023-05-01T04:10:14;16.10;;;9.15;;
44564;SDS011;30275;51.822;-0.326;2023-05-01T04:12:41;19.80;;;8.75;;
44564;SDS011;30275;51.822;-0.326;2023-05-01T04:15:06;16.20;;;7.78;;
44564;SDS011;30275;51.822;-0.326;2023-05-01T04:17:34;13.55;;;7.20;;
44564;SDS011;30275;51.822;-0.326;2023-05-01T04:20:00;15.07;;;6.75;;
44564;SDS011;30275;51.822;-0.326;2023-05-01T04:22:26;13.95;;;6.85;;
44564;SDS011;30275;51.822;-0.326;2023-05-01T04:24:51;16.55;;;6.68;;
44564;SDS011;30275;51.822;-0.326;2023-05-01T04:27:18;14.43;;;6.80;;
44564;SDS011;30275;51.822;-0.326;2023-05-01T04:29:44;14.25;;;6.50;;
44564;SDS011;30275;51.822;-0.326;2023-05-01T04:32:09;12.05;;;6.10;;
44564;SDS011;30275;51.822;-0.326;2023-05-01T04:34:35;10.02;;;5.78;;
44564;SDS011;30275;51.822;-0.326;2023-05-01T04:37:01;15.13;;;6.07;;
44564;SDS011;30275;51.822;-0.326;2023-05-01T04:39:27;14.90;;;6.25;;
44564;SDS011;30275;51.822;-0.326;2023-05-01T04:41:53;11.88;;;5.20;;
44564;SDS011;30275;51.822;-0.326;2023-05-01T04:44:18;13.63;;;6.07;;
44564;SDS011;30275;51.822;-0.326;2023-05-01T04:46:44;11.45;;;5.35;;
44564;SDS011;30275;51.822;-0.326;2023-05-01T04:49:10;13.10;;;6.30;;
44564;SDS011;30275;51.822;-0.326;2023-05-01T04:51:36;13.80;;;5.50;;
44564;SDS011;30275;51.822;-0.326;2023-05-01T04:54:02;11.60;;;6.35;;
44564;SDS011;30275;51.822;-0.326;2023-05-01T04:56:28;12.73;;;6.55;;
44564;SDS011;30275;51.822;-0.326;2023-05-01T04:58:54;11.98;;;5.97;;
44564;SDS011;30275;51.822;-0.326;2023-05-01T05:01:20;14.20;;;5.75;;
44564;SDS011;30275;51.822;-0.326;2023-05-01T05:03:45;13.23;;;6.95;;
44564;SDS011;30275;51.822;-0.326;2023-05-01T05:06:11;15.73;;;6.35;;
44564;SDS011;30275;51.822;-0.326;2023-05-01T05:08:36;10.70;;;7.13;;
44564;SDS011;30275;51.822;-0.326;2023-05-01T05:11:02;14.23;;;6.57;;
44564;SDS011;30275;51.822;-0.326;2023-05-01T05:13:27;15.50;;;6.05;;
44564;SDS011;30275;51.822;-0.326;2023-05-01T05:15:53;19.30;;;6.35;;
44564;SDS011;30275;51.822;-0.326;2023-05-01T05:18:19;12.82;;;6.20;;
44564;SDS011;30275;51.822;-0.326;2023-05-01T05:20:45;15.45;;;5.68;;
44564;SDS011;30275;51.822;-0.326;2023-05-01T05:23:10;14.50;;;7.15;;
44564;SDS011;30275;51.822;-0.326;2023-05-01T05:25:36;12.50;;;6.47;;
44564;SDS011;30275;51.822;-0.326;2023-05-01T05:28:02;19.77;;;7.60;;
44564;SDS011;30275;51.822;-0.326;2023-05-01T05:30:28;13.05;;;6.10;;
44564;SDS011;30275;51.822;-0.326;2023-05-01T05:32:53;16.58;;;6.30;;
44564;SDS011;30275;51.822;-0.326;2023-05-01T05:35:19;15.07;;;6.03;;
44564;SDS011;30275;51.822;-0.326;2023-05-01T05:37:45;10.45;;;5.65;;
44564;SDS011;30275;51.822;-0.326;2023-05-01T05:40:11;13.70;;;5.68;;
44564;SDS011;30275;51.822;-0.326;2023-05-01T05:42:37;12.77;;;6.28;;
44564;SDS011;30275;51.822;-0.326;2023-05-01T05:45:03;14.73;;;5.60;;
44564;SDS011;30275;51.822;-0.326;2023-05-01T05:47:29;16.58;;;6.10;;
44564;SDS011;30275;51.822;-0.326;2023-05-01T05:49:55;14.30;;;5.75;;
44564;SDS011;30275;51.822;-0.326;2023-05-01T05:52:21;13.68;;;6.03;;
44564;SDS011;30275;51.822;-0.326;2023-05-01T05:54:46;12.40;;;5.72;;
44564;SDS011;30275;51.822;-0.326;2023-05-01T05:57:12;14.65;;;6.88;;
44564;SDS011;30275;51.822;-0.326;2023-05-01T05:59:38;11.80;;;5.88;;
44564;SDS011;30275;51.822;-0.326;2023-05-01T06:02:04;10.50;;;5.68;;
44564;SDS011;30275;51.822;-0.326;2023-05-01T06:04:29;14.40;;;6.57;;
44564;SDS011;30275;51.822;-0.326;2023-05-01T06:06:55;18.48;;;6.07;;
44564;SDS011;30275;51.822;-0.326;2023-05-01T06:09:21;12.48;;;6.22;;
44564;SDS011;30275;51.822;-0.326;2023-05-01T06:11:47;14.10;;;6.30;;
44564;SDS011;30275;51.822;-0.326;2023-05-01T06:14:13;17.13;;;6.28;;
44564;SDS011;30275;51.822;-0.326;2023-05-01T06:16:39;10.35;;;5.80;;
44564;SDS011;30275;51.822;-0.326;2023-05-01T06:19:05;16.98;;;5.95;;
44564;SDS011;30275;51.822;-0.326;2023-05-01T06:21:32;15.43;;;6.70;;
44564;SDS011;30275;51.822;-0.326;2023-05-01T06:23:58;10.13;;;4.90;;
44564;SDS011;30275;51.822;-0.326;2023-05-01T06:26:23;15.25;;;6.50;;
44564;SDS011;30275;51.822;-0.326;2023-05-01T06:28:50;16.42;;;6.22;;
44564;SDS011;30275;51.822;-0.326;2023-05-01T06:31:15;14.38;;;7.25;;
44564;SDS011;30275;51.822;-0.326;2023-05-01T06:33:41;15.70;;;6.10;;
44564;SDS011;30275;51.822;-0.326;2023-05-01T06:36:06;11.68;;;5.90;;
44564;SDS011;30275;51.822;-0.326;2023-05-01T06:38:32;11.18;;;6.03;;
44564;SDS011;30275;51.822;-0.326;2023-05-01T06:40:58;14.40;;;5.88;;
44564;SDS011;30275;51.822;-0.326;2023-05-01T06:43:24;12.02;;;5.93;;
44564;SDS011;30275;51.822;-0.326;2023-05-01T06:45:54;15.10;;;6.22;;
44564;SDS011;30275;51.822;-0.326;2023-05-01T06:48:23;11.50;;;6.00;;
44564;SDS011;30275;51.822;-0.326;2023-05-01T06:50:48;15.30;;;6.03;;
44564;SDS011;30275;51.822;-0.326;2023-05-01T06:53:14;17.77;;;5.47;;
44564;SDS011;30275;51.822;-0.326;2023-05-01T06:55:40;15.27;;;6.13;;
44564;SDS011;30275;51.822;-0.326;2023-05-01T06:58:05;12.38;;;5.97;;
44564;SDS011;30275;51.822;-0.326;2023-05-01T07:00:32;11.00;;;5.50;;
44564;SDS011;30275;51.822;-0.326;2023-05-01T07:02:58;16.90;;;6.50;;
44564;SDS011;30275;51.822;-0.326;2023-05-01T07:05:24;9.65;;;5.03;;
44564;SDS011;30275;51.822;-0.326;2023-05-01T07:07:49;13.82;;;6.38;;
44564;SDS011;30275;51.822;-0.326;2023-05-01T07:10:15;10.65;;;4.90;;
44564;SDS011;30275;51.822;-0.326;2023-05-01T07:12:41;12.88;;;5.03;;
44564;SDS011;30275;51.822;-0.326;2023-05-01T07:15:06;12.13;;;5.30;;
44564;SDS011;30275;51.822;-0.326;2023-05-01T07:17:32;13.55;;;6.07;;
44564;SDS011;30275;51.822;-0.326;2023-05-01T07:19:58;11.20;;;5.75;;
44564;SDS011;30275;51.822;-0.326;2023-05-01T07:22:25;12.48;;;5.50;;
44564;SDS011;30275;51.822;-0.326;2023-05-01T07:24:52;11.15;;;5.10;;
44564;SDS011;30275;51.822;-0.326;2023-05-01T07:27:18;11.20;;;4.93;;
44564;SDS011;30275;51.822;-0.326;2023-05-01T07:29:44;11.35;;;5.85;;
44564;SDS011;30275;51.822;-0.326;2023-05-01T07:32:10;13.65;;;5.15;;
44564;SDS011;30275;51.822;-0.326;2023-05-01T07:34:35;10.52;;;5.10;;
44564;SDS011;30275;51.822;-0.326;2023-05-01T07:37:01;10.82;;;5.30;;
44564;SDS011;30275;51.822;-0.326;2023-05-01T07:39:28;10.52;;;5.07;;
44564;SDS011;30275;51.822;-0.326;2023-05-01T07:41:56;8.13;;;4.70;;
44564;SDS011;30275;51.822;-0.326;2023-05-01T07:44:22;8.70;;;4.95;;
44564;SDS011;30275;51.822;-0.326;2023-05-01T07:46:48;10.93;;;5.55;;
44564;SDS011;30275;51.822;-0.326;2023-05-01T07:49:13;10.95;;;5.70;;
44564;SDS011;30275;51.822;-0.326;2023-05-01T07:51:39;11.13;;;6.07;;
44564;SDS011;30275;51.822;-0.326;2023-05-01T07:54:05;9.68;;;5.00;;
44564;SDS011;30275;51.822;-0.326;2023-05-01T07:56:31;12.95;;;5.40;;
44564;SDS011;30275;51.822;-0.326;2023-05-01T07:58:56;8.85;;;4.75;;
44564;SDS011;30275;51.822;-0.326;2023-05-01T08:01:22;12.18;;;5.78;;
44564;SDS011;30275;51.822;-0.326;2023-05-01T08:03:48;10.05;;;5.32;;
44564;SDS011;30275;51.822;-0.326;2023-05-01T08:06:13;15.05;;;5.70;;
44564;SDS011;30275;51.822;-0.326;2023-05-01T08:08:39;13.05;;;5.53;;
44564;SDS011;30275;51.822;-0.326;2023-05-01T08:11:05;8.23;;;5.10;;
44564;SDS011;30275;51.822;-0.326;2023-05-01T08:13:30;9.57;;;5.28;;
44564;SDS011;30275;51.822;-0.326;2023-05-01T08:15:59;14.10;;;5.03;;
44564;SDS011;30275;51.822;-0.326;2023-05-01T08:20:54;10.07;;;5.35;;
44564;SDS011;30275;51.822;-0.326;2023-05-01T08:23:19;10.80;;;5.63;;
44564;SDS011;30275;51.822;-0.326;2023-05-01T08:25:50;11.85;;;5.65;;
44564;SDS011;30275;51.822;-0.326;2023-05-01T08:28:24;11.35;;;6.68;;
44564;SDS011;30275;51.822;-0.326;2023-05-01T08:30:51;13.30;;;6.10;;
44564;SDS011;30275;51.822;-0.326;2023-05-01T08:33:18;10.15;;;5.93;;
44564;SDS011;30275;51.822;-0.326;2023-05-01T08:35:44;11.80;;;5.75;;
44564;SDS011;30275;51.822;-0.326;2023-05-01T08:38:10;11.48;;;5.35;;
44564;SDS011;30275;51.822;-0.326;2023-05-01T08:40:36;12.80;;;6.25;;
44564;SDS011;30275;51.822;-0.326;2023-05-01T08:43:02;13.25;;;6.70;;
44564;SDS011;30275;51.822;-0.326;2023-05-01T08:45:29;8.73;;;5.85;;
44564;SDS011;30275;51.822;-0.326;2023-05-01T08:48:03;13.38;;;6.63;;
44564;SDS011;30275;51.822;-0.326;2023-05-01T08:50:34;12.35;;;6.63;;
44564;SDS011;30275;51.822;-0.326;2023-05-01T08:53:01;11.50;;;5.85;;
44564;SDS011;30275;51.822;-0.326;2023-05-01T08:55:29;10.95;;;5.35;;
44564;SDS011;30275;51.822;-0.326;2023-05-01T08:57:55;12.10;;;5.45;;
44564;SDS011;30275;51.822;-0.326;2023-05-01T09:00:22;9.30;;;4.97;;
44564;SDS011;30275;51.822;-0.326;2023-05-01T09:02:49;9.50;;;4.47;;
44564;SDS011;30275;51.822;-0.326;2023-05-01T09:05:16;9.43;;;5.30;;
44564;SDS011;30275;51.822;-0.326;2023-05-01T09:07:43;11.73;;;6.20;;
44564;SDS011;30275;51.822;-0.326;2023-05-01T09:10:11;9.02;;;5.55;;
44564;SDS011;30275;51.822;-0.326;2023-05-01T09:12:38;12.00;;;5.68;;
44564;SDS011;30275;51.822;-0.326;2023-05-01T09:15:04;11.32;;;5.03;;
44564;SDS011;30275;51.822;-0.326;2023-05-01T09:17:31;6.95;;;4.35;;
44564;SDS011;30275;51.822;-0.326;2023-05-01T09:19:58;9.52;;;3.85;;
44564;SDS011;30275;51.822;-0.326;2023-05-01T09:22:26;9.43;;;4.60;;
44564;SDS011;30275;51.822;-0.326;2023-05-01T09:24:51;7.70;;;3.97;;
44564;SDS011;30275;51.822;-0.326;2023-05-01T09:27:17;8.68;;;3.78;;
44564;SDS011;30275;51.822;-0.326;2023-05-01T09:32:16;8.52;;;4.93;;
44564;SDS011;30275;51.822;-0.326;2023-05-01T09:34:49;6.55;;;4.15;;
44564;SDS011;30275;51.822;-0.326;2023-05-01T09:40:02;9.77;;;4.95;;
44564;SDS011;30275;51.822;-0.326;2023-05-01T09:42:36;8.70;;;4.38;;
44564;SDS011;30275;51.822;-0.326;2023-05-01T09:45:04;14.52;;;4.95;;
44564;SDS011;30275;51.822;-0.326;2023-05-01T09:47:31;7.93;;;4.80;;
44564;SDS011;30275;51.822;-0.326;2023-05-01T09:49:58;9.25;;;5.10;;
44564;SDS011;30275;51.822;-0.326;2023-05-01T09:52:27;6.97;;;4.68;;
44564;SDS011;30275;51.822;-0.326;2023-05-01T09:57:42;6.53;;;4.10;;
44564;SDS011;30275;51.822;-0.326;2023-05-01T10:00:10;7.47;;;4.35;;
44564;SDS011;30275;51.822;-0.326;2023-05-01T10:02:38;9.50;;;5.20;;
44564;SDS011;30275;51.822;-0.326;2023-05-01T10:05:11;8.45;;;4.55;;
44564;SDS011;30275;51.822;-0.326;2023-05-01T10:07:38;9.05;;;4.85;;
44564;SDS011;30275;51.822;-0.326;2023-05-01T10:10:14;6.85;;;4.57;;
44564;SDS011;30275;51.822;-0.326;2023-05-01T10:12:45;7.07;;;5.07;;
44564;SDS011;30275;51.822;-0.326;2023-05-01T10:15:11;5.43;;;4.63;;
44564;SDS011;30275;51.822;-0.326;2023-05-01T10:17:37;5.53;;;3.70;;
44564;SDS011;30275;51.822;-0.326;2023-05-01T10:20:07;7.68;;;3.33;;
44564;SDS011;30275;51.822;-0.326;2023-05-01T10:22:34;4.82;;;2.83;;
44564;SDS011;30275;51.822;-0.326;2023-05-01T10:24:59;7.75;;;3.60;;
44564;SDS011;30275;51.822;-0.326;2023-05-01T10:27:25;6.43;;;2.92;;
44564;SDS011;30275;51.822;-0.326;2023-05-01T10:29:52;4.25;;;2.83;;
44564;SDS011;30275;51.822;-0.326;2023-05-01T10:32:18;3.95;;;2.85;;
44564;SDS011;30275;51.822;-0.326;2023-05-01T10:34:52;6.70;;;3.45;;
44564;SDS011;30275;51.822;-0.326;2023-05-01T10:37:23;5.10;;;2.90;;
44564;SDS011;30275;51.822;-0.326;2023-05-01T10:39:53;3.78;;;2.67;;
44564;SDS011;30275;51.822;-0.326;2023-05-01T10:42:19;3.97;;;2.65;;
44564;SDS011;30275;51.822;-0.326;2023-05-01T10:44:45;5.40;;;3.05;;
44564;SDS011;30275;51.822;-0.326;2023-05-01T10:55:39;8.27;;;3.00;;
44564;SDS011;30275;51.822;-0.326;2023-05-01T20:46:28;3.97;;;2.00;;
44564;SDS011;30275;51.822;-0.326;2023-05-01T20:48:53;3.55;;;2.08;;
44564;SDS011;30275;51.822;-0.326;2023-05-01T20:51:19;4.68;;;1.70;;
44564;SDS011;30275;51.822;-0.326;2023-05-01T20:53:45;2.85;;;1.90;;
44564;SDS011;30275;51.822;-0.326;2023-05-01T20:56:11;3.80;;;1.80;;
44564;SDS011;30275;51.822;-0.326;2023-05-01T20:58:37;3.40;;;2.05;;
44564;SDS011;30275;51.822;-0.326;2023-05-01T21:01:02;3.70;;;2.08;;
44564;SDS011;30275;51.822;-0.326;2023-05-01T21:03:29;4.57;;;2.35;;
44564;SDS011;30275;51.822;-0.326;2023-05-01T21:05:59;4.82;;;2.15;;
44564;SDS011;30275;51.822;-0.326;2023-05-01T21:08:25;4.22;;;2.05;;
44564;SDS011;30275;51.822;-0.326;2023-05-01T21:10:51;3.83;;;2.17;;
44564;SDS011;30275;51.822;-0.326;2023-05-01T21:13:17;3.10;;;2.10;;
44564;SDS011;30275;51.822;-0.326;2023-05-01T21:15:45;3.17;;;2.20;;
44564;SDS011;30275;51.822;-0.326;2023-05-01T21:18:11;3.00;;;2.05;;
44564;SDS011;30275;51.822;-0.326;2023-05-01T21:20:39;2.22;;;1.85;;
44564;SDS011;30275;51.822;-0.326;2023-05-01T21:23:06;3.03;;;2.08;;
44564;SDS011;30275;51.822;-0.326;2023-05-01T21:25:32;2.75;;;2.10;;
44564;SDS011;30275;51.822;-0.326;2023-05-01T21:27:58;5.18;;;2.10;;
44564;SDS011;30275;51.822;-0.326;2023-05-01T21:32:57;2.45;;;2.10;;
44564;SDS011;30275;51.822;-0.326;2023-05-01T21:35:24;3.58;;;2.10;;
44564;SDS011;30275;51.822;-0.326;2023-05-01T21:37:51;2.80;;;2.30;;
44564;SDS011;30275;51.822;-0.326;2023-05-01T21:40:17;2.80;;;2.30;;
44564;SDS011;30275;51.822;-0.326;2023-05-01T21:42:43;2.97;;;2.00;;
44564;SDS011;30275;51.822;-0.326;2023-05-01T21:45:10;3.70;;;2.20;;
44564;SDS011;30275;51.822;-0.326;2023-05-01T21:47:38;3.95;;;2.20;;
44564;SDS011;30275;51.822;-0.326;2023-05-01T21:50:13;4.07;;;2.72;;
44564;SDS011;30275;51.822;-0.326;2023-05-01T21:52:40;4.97;;;2.65;;
44564;SDS011;30275;51.822;-0.326;2023-05-01T21:55:08;3.03;;;2.63;;
44564;SDS011;30275;51.822;-0.326;2023-05-01T21:57:38;7.68;;;2.80;;
44564;SDS011;30275;51.822;-0.326;2023-05-01T22:00:04;6.05;;;2.78;;
44564;SDS011;30275;51.822;-0.326;2023-05-01T22:02:34;3.97;;;2.55;;
44564;SDS011;30275;51.822;-0.326;2023-05-01T22:05:04;4.68;;;2.75;;
44564;SDS011;30275;51.822;-0.326;2023-05-01T22:07:36;4.05;;;3.00;;
44564;SDS011;30275;51.822;-0.326;2023-05-01T22:10:02;4.03;;;2.85;;
44564;SDS011;30275;51.822;-0.326;2023-05-01T22:12:28;3.58;;;2.55;;
44564;SDS011;30275;51.822;-0.326;2023-05-01T22:14:54;3.85;;;2.75;;
44564;SDS011;30275;51.822;-0.326;2023-05-01T22:17:19;5.15;;;2.78;;
44564;SDS011;30275;51.822;-0.326;2023-05-01T22:19:51;4.95;;;3.08;;
44564;SDS011;30275;51.822;-0.326;2023-05-01T22:22:17;3.65;;;2.75;;
44564;SDS011;30275;51.822;-0.326;2023-05-01T22:24:43;8.30;;;3.45;;
44564;SDS011;30275;51.822;-0.326;2023-05-01T22:27:08;3.83;;;2.72;;
44564;SDS011;30275;51.822;-0.326;2023-05-01T22:29:34;5.60;;;3.42;;
44564;SDS011;30275;51.822;-0.326;2023-05-01T22:31:59;3.92;;;2.78;;
44564;SDS011;30275;51.822;-0.326;2023-05-01T22:34:25;4.25;;;3.53;;
44564;SDS011;30275;51.822;-0.326;2023-05-01T22:36:51;5.78;;;3.58;;
44564;SDS011;30275;51.822;-0.326;2023-05-01T22:39:16;4.57;;;3.80;;
44564;SDS011;30275;51.822;-0.326;2023-05-01T22:41:42;4.40;;;3.25;;
44564;SDS011;30275;51.822;-0.326;2023-05-01T22:44:08;4.00;;;3.38;;
44564;SDS011;30275;51.822;-0.326;2023-05-01T22:46:33;3.90;;;3.40;;
44564;SDS011;30275;51.822;-0.326;2023-05-01T22:48:59;6.35;;;3.67;;
44564;SDS011;30275;51.822;-0.326;2023-05-01T22:51:27;4.72;;;3.45;;
44564;SDS011;30275;51.822;-0.326;2023-05-01T22:53:53;4.70;;;3.50;;
44564;SDS011;30275;51.822;-0.326;2023-05-01T22:56:19;5.68;;;3.40;;
44564;SDS011;30275;51.822;-0.326;2023-05-01T22:58:45;5.43;;;3.58;;
44564;SDS011;30275;51.822;-0.326;2023-05-01T23:01:11;5.00;;;3.88;;
44564;SDS011;30275;51.822;-0.326;2023-05-01T23:03:36;4.43;;;3.70;;
44564;SDS011;30275;51.822;-0.326;2023-05-01T23:06:02;4.35;;;3.53;;
44564;SDS011;30275;51.822;-0.326;2023-05-01T23:08:28;5.45;;;3.63;;
44564;SDS011;30275;51.822;-0.326;2023-05-01T23:10:53;7.00;;;3.90;;
44564;SDS011;30275;51.822;-0.326;2023-05-01T23:13:19;5.97;;;3.60;;
44564;SDS011;30275;51.822;-0.326;2023-05-01T23:15:47;6.05;;;3.63;;
44564;SDS011;30275;51.822;-0.326;2023-05-01T23:18:19;7.65;;;4.68;;
44564;SDS011;30275;51.822;-0.326;2023-05-01T23:20:54;5.75;;;4.32;;
44564;SDS011;30275;51.822;-0.326;2023-05-01T23:23:20;5.60;;;3.67;;
44564;SDS011;30275;51.822;-0.326;2023-05-01T23:25:46;7.53;;;4.25;;
44564;SDS011;30275;51.822;-0.326;2023-05-01T23:28:20;4.93;;;3.95;;
44564;SDS011;30275;51.822;-0.326;2023-05-01T23:30:53;6.63;;;4.43;;
44564;SDS011;30275;51.822;-0.326;2023-05-01T23:35:45;7.40;;;4.90;;
44564;SDS011;30275;51.822;-0.326;2023-05-01T23:38:11;5.68;;;4.40;;
44564;SDS011;30275;51.822;-0.326;2023-05-01T23:40:37;7.35;;;5.00;;
44564;SDS011;30275;51.822;-0.326;2023-05-01T23:43:04;6.88;;;5.03;;
44564;SDS011;30275;51.822;-0.326;2023-05-01T23:45:30;6.88;;;5.15;;
44564;SDS011;30275;51.822;-0.326;2023-05-01T23:47:56;8.40;;;4.75;;
44564;SDS011;30275;51.822;-0.326;2023-05-01T23:50:22;6.85;;;5.05;;
44564;SDS011;30275;51.822;-0.326;2023-05-01T23:52:49;7.72;;;5.05;;
44564;SDS011;30275;51.822;-0.326;2023-05-01T23:55:15;6.93;;;4.93;;
44564;SDS011;30275;51.822;-0.326;2023-05-01T23:57:41;6.60;;;5.28;;
